sensor_id;sensor_type;location;lat;lon;timestamp;P1;durP1;ratioP1;P2;durP2;ratioP2
38972;SDS011;25333;50.762;4.470;2022-10-15T00:02:05;12.85;;;10.95;;
38972;SDS011;25333;50.762;4.470;2022-10-15T00:04:31;15.57;;;13.25;;
38972;SDS011;25333;50.762;4.470;2022-10-15T00:06:57;15.80;;;13.67;;
38972;SDS011;25333;50.762;4.470;2022-10-15T00:09:23;15.30;;;13.70;;
38972;SDS011;25333;50.762;4.470;2022-10-15T00:11:49;15.03;;;12.90;;
38972;SDS011;25333;50.762;4.470;2022-10-15T00:14:15;18.70;;;15.65;;
38972;SDS011;25333;50.762;4.470;2022-10-15T00:16:41;21.63;;;16.52;;
38972;SDS011;25333;50.762;4.470;2022-10-15T00:19:08;23.30;;;16.80;;
38972;SDS011;25333;50.762;4.470;2022-10-15T00:21:33;17.88;;;15.90;;
38972;SDS011;25333;50.762;4.470;2022-10-15T00:23:59;21.92;;;17.10;;
38972;SDS011;25333;50.762;4.470;2022-10-15T00:26:26;18.75;;;15.45;;
38972;SDS011;25333;50.762;4.470;2022-10-15T00:28:54;18.45;;;16.10;;
38972;SDS011;25333;50.762;4.470;2022-10-15T00:31:23;20.80;;;17.17;;
38972;SDS011;25333;50.762;4.470;2022-10-15T00:33:51;19.73;;;17.43;;
38972;SDS011;25333;50.762;4.470;2022-10-15T00:36:18;16.73;;;14.90;;
38972;SDS011;25333;50.762;4.470;2022-10-15T00:38:46;19.83;;;16.15;;
38972;SDS011;25333;50.762;4.470;2022-10-15T00:41:17;20.20;;;16.90;;
38972;SDS011;25333;50.762;4.470;2022-10-15T00:43:52;19.52;;;17.35;;
38972;SDS011;25333;50.762;4.470;2022-10-15T00:48:52;18.65;;;15.90;;
38972;SDS011;25333;50.762;4.470;2022-10-15T00:51:40;20.95;;;18.35;;
38972;SDS011;25333;50.762;4.470;2022-10-15T00:54:11;19.55;;;17.02;;
38972;SDS011;25333;50.762;4.470;2022-10-15T00:56:42;17.40;;;15.52;;
38972;SDS011;25333;50.762;4.470;2022-10-15T00:59:09;19.83;;;17.10;;
38972;SDS011;25333;50.762;4.470;2022-10-15T01:01:37;20.05;;;17.17;;
38972;SDS011;25333;50.762;4.470;2022-10-15T01:04:06;21.25;;;18.45;;
38972;SDS011;25333;50.762;4.470;2022-10-15T01:06:32;19.88;;;17.63;;
38972;SDS011;25333;50.762;4.470;2022-10-15T01:08:58;21.13;;;18.42;;
38972;SDS011;25333;50.762;4.470;2022-10-15T01:17:13;22.50;;;19.13;;
38972;SDS011;25333;50.762;4.470;2022-10-15T01:28:47;20.38;;;17.38;;
38972;SDS011;25333;50.762;4.470;2022-10-15T01:34:22;24.45;;;17.13;;
38972;SDS011;25333;50.762;4.470;2022-10-15T01:37:06;20.92;;;17.13;;
38972;SDS011;25333;50.762;4.470;2022-10-15T01:39:43;20.25;;;16.40;;
38972;SDS011;25333;50.762;4.470;2022-10-15T01:42:15;21.88;;;19.15;;
38972;SDS011;25333;50.762;4.470;2022-10-15T01:44:49;22.73;;;17.92;;
38972;SDS011;25333;50.762;4.470;2022-10-15T01:47:19;21.20;;;18.07;;
38972;SDS011;25333;50.762;4.470;2022-10-15T01:49:49;20.42;;;17.02;;
38972;SDS011;25333;50.762;4.470;2022-10-15T01:52:19;22.80;;;17.90;;
38972;SDS011;25333;50.762;4.470;2022-10-15T01:54:49;19.05;;;16.17;;
38972;SDS011;25333;50.762;4.470;2022-10-15T01:57:17;21.80;;;18.73;;
38972;SDS011;25333;50.762;4.470;2022-10-15T01:59:44;21.38;;;17.92;;
38972;SDS011;25333;50.762;4.470;2022-10-15T02:02:10;22.47;;;17.90;;
38972;SDS011;25333;50.762;4.470;2022-10-15T02:04:36;24.13;;;19.38;;
38972;SDS011;25333;50.762;4.470;2022-10-15T02:07:46;22.27;;;17.37;;
38972;SDS011;25333;50.762;4.470;2022-10-15T02:13:08;25.55;;;19.33;;
38972;SDS011;25333;50.762;4.470;2022-10-15T02:18:35;22.23;;;18.47;;
38972;SDS011;25333;50.762;4.470;2022-10-15T02:21:24;23.52;;;19.00;;
38972;SDS011;25333;50.762;4.470;2022-10-15T02:24:14;26.63;;;19.38;;
38972;SDS011;25333;50.762;4.470;2022-10-15T02:26:46;25.35;;;20.20;;
38972;SDS011;25333;50.762;4.470;2022-10-15T02:29:13;27.42;;;21.33;;
38972;SDS011;25333;50.762;4.470;2022-10-15T02:31:46;26.05;;;19.45;;
38972;SDS011;25333;50.762;4.470;2022-10-15T02:34:17;24.35;;;19.58;;
38972;SDS011;25333;50.762;4.470;2022-10-15T02:36:46;24.50;;;18.30;;
38972;SDS011;25333;50.762;4.470;2022-10-15T02:39:13;23.77;;;18.38;;
38972;SDS011;25333;50.762;4.470;2022-10-15T02:41:43;23.02;;;18.23;;
38972;SDS011;25333;50.762;4.470;2022-10-15T02:44:09;24.20;;;18.90;;
38972;SDS011;25333;50.762;4.470;2022-10-15T02:46:35;24.05;;;18.88;;
38972;SDS011;25333;50.762;4.470;2022-10-15T02:49:01;24.40;;;19.10;;
38972;SDS011;25333;50.762;4.470;2022-10-15T02:51:29;24.57;;;19.73;;
38972;SDS011;25333;50.762;4.470;2022-10-15T02:54:00;27.15;;;18.65;;
38972;SDS011;25333;50.762;4.470;2022-10-15T02:56:27;23.77;;;18.65;;
38972;SDS011;25333;50.762;4.470;2022-10-15T02:58:53;22.92;;;18.33;;
38972;SDS011;25333;50.762;4.470;2022-10-15T03:01:18;22.27;;;17.88;;
38972;SDS011;25333;50.762;4.470;2022-10-15T03:03:46;26.00;;;18.10;;
38972;SDS011;25333;50.762;4.470;2022-10-15T03:06:14;23.35;;;17.20;;
38972;SDS011;25333;50.762;4.470;2022-10-15T03:08:40;20.83;;;16.52;;
38972;SDS011;25333;50.762;4.470;2022-10-15T03:11:07;20.98;;;16.00;;
38972;SDS011;25333;50.762;4.470;2022-10-15T03:13:36;20.08;;;16.08;;
38972;SDS011;25333;50.762;4.470;2022-10-15T03:16:06;19.33;;;16.13;;
38972;SDS011;25333;50.762;4.470;2022-10-15T03:18:33;19.98;;;15.20;;
38972;SDS011;25333;50.762;4.470;2022-10-15T03:20:59;20.00;;;14.98;;
38972;SDS011;25333;50.762;4.470;2022-10-15T03:23:25;19.63;;;16.40;;
38972;SDS011;25333;50.762;4.470;2022-10-15T03:25:51;22.42;;;16.27;;
38972;SDS011;25333;50.762;4.470;2022-10-15T03:28:17;21.23;;;16.00;;
38972;SDS011;25333;50.762;4.470;2022-10-15T03:30:43;20.83;;;16.45;;
38972;SDS011;25333;50.762;4.470;2022-10-15T03:33:09;19.48;;;15.52;;
38972;SDS011;25333;50.762;4.470;2022-10-15T03:35:34;18.42;;;14.38;;
38972;SDS011;25333;50.762;4.470;2022-10-15T03:38:00;19.60;;;15.35;;
38972;SDS011;25333;50.762;4.470;2022-10-15T03:40:26;19.73;;;15.53;;
38972;SDS011;25333;50.762;4.470;2022-10-15T03:42:52;20.98;;;15.27;;
38972;SDS011;25333;50.762;4.470;2022-10-15T03:45:18;19.58;;;15.60;;
38972;SDS011;25333;50.762;4.470;2022-10-15T03:47:44;20.17;;;15.00;;
38972;SDS011;25333;50.762;4.470;2022-10-15T03:50:10;16.50;;;13.18;;
38972;SDS011;25333;50.762;4.470;2022-10-15T03:52:36;19.15;;;15.55;;
38972;SDS011;25333;50.762;4.470;2022-10-15T03:55:02;20.52;;;13.73;;
38972;SDS011;25333;50.762;4.470;2022-10-15T03:57:29;16.25;;;12.93;;
38972;SDS011;25333;50.762;4.470;2022-10-15T03:59:54;15.13;;;12.43;;
38972;SDS011;25333;50.762;4.470;2022-10-15T04:02:20;16.73;;;12.47;;
38972;SDS011;25333;50.762;4.470;2022-10-15T04:04:46;16.15;;;12.52;;
38972;SDS011;25333;50.762;4.470;2022-10-15T04:07:12;14.38;;;11.18;;
38972;SDS011;25333;50.762;4.470;2022-10-15T04:09:37;13.73;;;11.27;;
38972;SDS011;25333;50.762;4.470;2022-10-15T04:12:03;13.53;;;10.03;;
38972;SDS011;25333;50.762;4.470;2022-10-15T04:14:29;14.68;;;11.13;;
38972;SDS011;25333;50.762;4.470;2022-10-15T04:16:56;14.10;;;10.70;;
38972;SDS011;25333;50.762;4.470;2022-10-15T04:19:23;14.02;;;11.05;;
38972;SDS011;25333;50.762;4.470;2022-10-15T04:21:48;14.38;;;9.88;;
38972;SDS011;25333;50.762;4.470;2022-10-15T04:24:14;13.00;;;10.05;;
38972;SDS011;25333;50.762;4.470;2022-10-15T04:26:40;14.35;;;10.23;;
38972;SDS011;25333;50.762;4.470;2022-10-15T04:29:05;15.47;;;11.33;;
38972;SDS011;25333;50.762;4.470;2022-10-15T04:31:31;14.43;;;10.30;;
38972;SDS011;25333;50.762;4.470;2022-10-15T04:33:57;14.73;;;10.50;;
38972;SDS011;25333;50.762;4.470;2022-10-15T04:36:23;12.93;;;9.93;;
38972;SDS011;25333;50.762;4.470;2022-10-15T04:38:49;12.60;;;9.67;;
38972;SDS011;25333;50.762;4.470;2022-10-15T04:41:14;12.50;;;9.40;;
38972;SDS011;25333;50.762;4.470;2022-10-15T04:43:40;13.63;;;9.80;;
38972;SDS011;25333;50.762;4.470;2022-10-15T04:46:06;11.87;;;8.50;;
38972;SDS011;25333;50.762;4.470;2022-10-15T04:48:33;13.18;;;9.45;;
38972;SDS011;25333;50.762;4.470;2022-10-15T04:51:07;12.45;;;8.68;;
38972;SDS011;25333;50.762;4.470;2022-10-15T04:53:37;10.85;;;8.50;;
38972;SDS011;25333;50.762;4.470;2022-10-15T04:56:03;11.48;;;9.00;;
38972;SDS011;25333;50.762;4.470;2022-10-15T04:58:34;10.90;;;8.32;;
38972;SDS011;25333;50.762;4.470;2022-10-15T05:01:06;10.93;;;7.75;;
38972;SDS011;25333;50.762;4.470;2022-10-15T05:03:33;10.98;;;8.23;;
38972;SDS011;25333;50.762;4.470;2022-10-15T05:06:02;9.88;;;7.43;;
38972;SDS011;25333;50.762;4.470;2022-10-15T05:08:30;10.05;;;7.82;;
38972;SDS011;25333;50.762;4.470;2022-10-15T05:11:05;9.48;;;6.78;;
38972;SDS011;25333;50.762;4.470;2022-10-15T05:13:32;10.52;;;7.63;;
38972;SDS011;25333;50.762;4.470;2022-10-15T05:16:10;10.75;;;7.43;;
38972;SDS011;25333;50.762;4.470;2022-10-15T05:18:49;9.47;;;6.70;;
38972;SDS011;25333;50.762;4.470;2022-10-15T05:21:18;9.10;;;6.95;;
38972;SDS011;25333;50.762;4.470;2022-10-15T05:23:44;10.17;;;6.83;;
38972;SDS011;25333;50.762;4.470;2022-10-15T05:26:12;9.20;;;6.70;;
38972;SDS011;25333;50.762;4.470;2022-10-15T05:28:41;10.07;;;6.47;;
38972;SDS011;25333;50.762;4.470;2022-10-15T05:31:10;11.20;;;7.15;;
38972;SDS011;25333;50.762;4.470;2022-10-15T05:33:37;9.48;;;6.40;;
38972;SDS011;25333;50.762;4.470;2022-10-15T05:36:10;8.40;;;6.18;;
38972;SDS011;25333;50.762;4.470;2022-10-15T05:38:38;8.98;;;6.80;;
38972;SDS011;25333;50.762;4.470;2022-10-15T05:41:04;9.02;;;6.55;;
38972;SDS011;25333;50.762;4.470;2022-10-15T05:43:32;8.27;;;6.63;;
38972;SDS011;25333;50.762;4.470;2022-10-15T05:46:01;9.50;;;6.28;;
38972;SDS011;25333;50.762;4.470;2022-10-15T05:48:27;11.85;;;6.68;;
38972;SDS011;25333;50.762;4.470;2022-10-15T05:51:12;8.87;;;5.87;;
38972;SDS011;25333;50.762;4.470;2022-10-15T05:53:38;7.32;;;5.63;;
38972;SDS011;25333;50.762;4.470;2022-10-15T05:56:05;9.02;;;6.20;;
38972;SDS011;25333;50.762;4.470;2022-10-15T05:58:32;8.65;;;6.47;;
38972;SDS011;25333;50.762;4.470;2022-10-15T06:00:59;10.07;;;6.72;;
38972;SDS011;25333;50.762;4.470;2022-10-15T06:03:27;12.02;;;7.13;;
38972;SDS011;25333;50.762;4.470;2022-10-15T06:05:52;9.70;;;6.93;;
38972;SDS011;25333;50.762;4.470;2022-10-15T06:08:19;8.75;;;6.28;;
38972;SDS011;25333;50.762;4.470;2022-10-15T06:10:45;8.68;;;5.97;;
38972;SDS011;25333;50.762;4.470;2022-10-15T06:13:13;8.32;;;6.53;;
38972;SDS011;25333;50.762;4.470;2022-10-15T06:15:43;9.73;;;6.93;;
38972;SDS011;25333;50.762;4.470;2022-10-15T06:18:10;9.68;;;6.50;;
38972;SDS011;25333;50.762;4.470;2022-10-15T06:20:36;9.82;;;7.20;;
38972;SDS011;25333;50.762;4.470;2022-10-15T06:23:22;11.15;;;6.68;;
38972;SDS011;25333;50.762;4.470;2022-10-15T06:25:50;10.60;;;7.05;;
38972;SDS011;25333;50.762;4.470;2022-10-15T06:28:16;10.80;;;6.97;;
38972;SDS011;25333;50.762;4.470;2022-10-15T06:30:42;12.63;;;8.07;;
38972;SDS011;25333;50.762;4.470;2022-10-15T06:33:08;11.15;;;6.93;;
38972;SDS011;25333;50.762;4.470;2022-10-15T06:35:34;9.77;;;6.88;;
38972;SDS011;25333;50.762;4.470;2022-10-15T06:38:04;12.18;;;8.20;;
38972;SDS011;25333;50.762;4.470;2022-10-15T06:40:30;10.13;;;7.28;;
38972;SDS011;25333;50.762;4.470;2022-10-15T06:43:03;11.30;;;7.50;;
38972;SDS011;25333;50.762;4.470;2022-10-15T06:45:30;10.50;;;6.72;;
38972;SDS011;25333;50.762;4.470;2022-10-15T06:47:55;9.23;;;6.60;;
38972;SDS011;25333;50.762;4.470;2022-10-15T06:50:21;11.60;;;7.43;;
38972;SDS011;25333;50.762;4.470;2022-10-15T06:52:47;9.80;;;6.40;;
38972;SDS011;25333;50.762;4.470;2022-10-15T06:55:12;7.55;;;5.28;;
38972;SDS011;25333;50.762;4.470;2022-10-15T06:57:38;8.50;;;6.03;;
38972;SDS011;25333;50.762;4.470;2022-10-15T07:00:04;7.97;;;6.23;;
38972;SDS011;25333;50.762;4.470;2022-10-15T07:02:30;8.73;;;5.45;;
38972;SDS011;25333;50.762;4.470;2022-10-15T07:04:55;8.03;;;5.60;;
38972;SDS011;25333;50.762;4.470;2022-10-15T07:07:22;9.07;;;5.53;;
38972;SDS011;25333;50.762;4.470;2022-10-15T07:09:47;7.35;;;5.28;;
38972;SDS011;25333;50.762;4.470;2022-10-15T07:12:17;5.88;;;4.88;;
38972;SDS011;25333;50.762;4.470;2022-10-15T07:14:45;7.65;;;4.90;;
38972;SDS011;25333;50.762;4.470;2022-10-15T07:17:12;6.85;;;4.32;;
38972;SDS011;25333;50.762;4.470;2022-10-15T07:19:40;7.43;;;5.10;;
38972;SDS011;25333;50.762;4.470;2022-10-15T07:22:06;6.13;;;4.30;;
38972;SDS011;25333;50.762;4.470;2022-10-15T07:24:32;5.80;;;3.97;;
38972;SDS011;25333;50.762;4.470;2022-10-15T07:26:57;4.50;;;3.47;;
38972;SDS011;25333;50.762;4.470;2022-10-15T07:29:23;4.60;;;3.20;;
38972;SDS011;25333;50.762;4.470;2022-10-15T07:31:49;5.50;;;3.50;;
38972;SDS011;25333;50.762;4.470;2022-10-15T07:34:15;4.77;;;3.30;;
38972;SDS011;25333;50.762;4.470;2022-10-15T07:36:40;3.50;;;2.88;;
38972;SDS011;25333;50.762;4.470;2022-10-15T07:39:07;4.70;;;2.70;;
38972;SDS011;25333;50.762;4.470;2022-10-15T07:41:33;2.67;;;2.05;;
38972;SDS011;25333;50.762;4.470;2022-10-15T07:44:05;2.97;;;2.17;;
38972;SDS011;25333;50.762;4.470;2022-10-15T07:46:30;2.77;;;1.80;;
38972;SDS011;25333;50.762;4.470;2022-10-15T07:48:56;2.85;;;1.77;;
38972;SDS011;25333;50.762;4.470;2022-10-15T07:51:21;3.50;;;1.77;;
38972;SDS011;25333;50.762;4.470;2022-10-15T07:53:52;2.77;;;1.60;;
38972;SDS011;25333;50.762;4.470;2022-10-15T07:56:18;2.90;;;2.15;;
38972;SDS011;25333;50.762;4.470;2022-10-15T07:58:44;2.60;;;1.25;;
38972;SDS011;25333;50.762;4.470;2022-10-15T08:01:16;2.38;;;1.30;;
38972;SDS011;25333;50.762;4.470;2022-10-15T08:03:43;3.58;;;1.50;;
38972;SDS011;25333;50.762;4.470;2022-10-15T08:06:09;2.33;;;1.40;;
38972;SDS011;25333;50.762;4.470;2022-10-15T08:08:35;2.35;;;1.38;;
38972;SDS011;25333;50.762;4.470;2022-10-15T08:11:05;1.92;;;1.40;;
38972;SDS011;25333;50.762;4.470;2022-10-15T08:13:38;2.92;;;1.20;;
38972;SDS011;25333;50.762;4.470;2022-10-15T08:16:06;2.95;;;1.30;;
38972;SDS011;25333;50.762;4.470;2022-10-15T08:18:36;2.60;;;1.13;;
38972;SDS011;25333;50.762;4.470;2022-10-15T08:21:02;2.30;;;1.13;;
38972;SDS011;25333;50.762;4.470;2022-10-15T08:23:29;2.05;;;0.82;;
38972;SDS011;25333;50.762;4.470;2022-10-15T08:25:56;2.33;;;0.90;;
38972;SDS011;25333;50.762;4.470;2022-10-15T08:28:23;1.90;;;0.60;;
38972;SDS011;25333;50.762;4.470;2022-10-15T08:30:49;1.70;;;0.60;;
38972;SDS011;25333;50.762;4.470;2022-10-15T08:33:15;1.48;;;0.70;;
38972;SDS011;25333;50.762;4.470;2022-10-15T08:35:41;1.23;;;0.55;;
38972;SDS011;25333;50.762;4.470;2022-10-15T08:38:08;1.70;;;0.50;;
38972;SDS011;25333;50.762;4.470;2022-10-15T08:40:34;1.10;;;0.47;;
38972;SDS011;25333;50.762;4.470;2022-10-15T08:43:00;2.10;;;0.52;;
38972;SDS011;25333;50.762;4.470;2022-10-15T08:45:28;1.98;;;0.50;;
38972;SDS011;25333;50.762;4.470;2022-10-15T08:50:44;0.93;;;0.45;;
38972;SDS011;25333;50.762;4.470;2022-10-15T08:53:54;1.10;;;0.52;;
38972;SDS011;25333;50.762;4.470;2022-10-15T08:56:27;1.27;;;0.40;;
38972;SDS011;25333;50.762;4.470;2022-10-15T09:01:29;0.80;;;0.40;;
38972;SDS011;25333;50.762;4.470;2022-10-15T09:15:11;1.70;;;0.25;;
38972;SDS011;25333;50.762;4.470;2022-10-15T09:17:39;0.70;;;0.13;;
38972;SDS011;25333;50.762;4.470;2022-10-15T09:20:13;0.90;;;0.20;;
38972;SDS011;25333;50.762;4.470;2022-10-15T09:22:50;0.90;;;0.38;;
38972;SDS011;25333;50.762;4.470;2022-10-15T09:28:15;0.30;;;0.10;;
38972;SDS011;25333;50.762;4.470;2022-10-15T09:31:06;0.75;;;0.38;;
38972;SDS011;25333;50.762;4.470;2022-10-15T09:33:42;0.55;;;0.10;;
38972;SDS011;25333;50.762;4.470;2022-10-15T09:36:40;0.52;;;0.10;;
38972;SDS011;25333;50.762;4.470;2022-10-15T09:49:26;0.75;;;0.10;;
38972;SDS011;25333;50.762;4.470;2022-10-15T10:07:45;0.65;;;0.30;;
38972;SDS011;25333;50.762;4.470;2022-10-15T10:10:44;1.55;;;0.25;;
38972;SDS011;25333;50.762;4.470;2022-10-15T10:16:09;0.90;;;0.40;;
38972;SDS011;25333;50.762;4.470;2022-10-15T10:19:03;0.60;;;0.10;;
38972;SDS011;25333;50.762;4.470;2022-10-15T10:24:32;0.60;;;0.20;;
38972;SDS011;25333;50.762;4.470;2022-10-15T10:26:58;0.40;;;0.28;;
38972;SDS011;25333;50.762;4.470;2022-10-15T10:29:28;0.50;;;0.20;;
38972;SDS011;25333;50.762;4.470;2022-10-15T10:32:21;1.30;;;0.20;;
38972;SDS011;25333;50.762;4.470;2022-10-15T10:34:55;0.88;;;0.25;;
38972;SDS011;25333;50.762;4.470;2022-10-15T10:38:15;0.93;;;0.30;;
38972;SDS011;25333;50.762;4.470;2022-10-15T10:40:25;0.80;;;0.30;;
38972;SDS011;25333;50.762;4.470;2022-10-15T10:43:20;0.70;;;0.20;;
38972;SDS011;25333;50.762;4.470;2022-10-15T10:51:08;0.80;;;0.38;;
38972;SDS011;25333;50.762;4.470;2022-10-15T10:53:36;2.00;;;0.38;;
38972;SDS011;25333;50.762;4.470;2022-10-15T10:56:09;1.08;;;0.30;;
38972;SDS011;25333;50.762;4.470;2022-10-15T11:01:41;0.80;;;0.20;;
38972;SDS011;25333;50.762;4.470;2022-10-15T11:04:16;0.93;;;0.35;;
38972;SDS011;25333;50.762;4.470;2022-10-15T11:21:08;0.50;;;0.20;;
38972;SDS011;25333;50.762;4.470;2022-10-15T11:29:39;0.75;;;0.20;;
38972;SDS011;25333;50.762;4.470;2022-10-15T11:32:29;1.40;;;0.20;;
38972;SDS011;25333;50.762;4.470;2022-10-15T11:44:41;0.60;;;0.20;;
38972;SDS011;25333;50.762;4.470;2022-10-15T11:56:18;0.57;;;0.20;;
38972;SDS011;25333;50.762;4.470;2022-10-15T12:01:42;0.60;;;0.10;;
38972;SDS011;25333;50.762;4.470;2022-10-15T12:04:28;0.43;;;0.10;;
38972;SDS011;25333;50.762;4.470;2022-10-15T12:07:04;1.30;;;0.20;;
38972;SDS011;25333;50.762;4.470;2022-10-15T12:09:35;1.15;;;0.30;;
38972;SDS011;25333;50.762;4.470;2022-10-15T12:12:18;0.70;;;0.25;;
38972;SDS011;25333;50.762;4.470;2022-10-15T12:20:48;0.50;;;0.25;;
38972;SDS011;25333;50.762;4.470;2022-10-15T12:23:42;3.17;;;0.38;;
38972;SDS011;25333;50.762;4.470;2022-10-15T12:29:05;1.25;;;0.60;;
38972;SDS011;25333;50.762;4.470;2022-10-15T12:38:32;1.40;;;0.30;;
38972;SDS011;25333;50.762;4.470;2022-10-15T12:53:36;0.50;;;0.28;;
38972;SDS011;25333;50.762;4.470;2022-10-15T12:56:37;1.13;;;0.20;;
38972;SDS011;25333;50.762;4.470;2022-10-15T13:07:40;1.35;;;0.17;;
38972;SDS011;25333;50.762;4.470;2022-10-15T13:17:21;2.93;;;0.30;;
38972;SDS011;25333;50.762;4.470;2022-10-15T13:20:15;1.63;;;0.30;;
38972;SDS011;25333;50.762;4.470;2022-10-15T13:25:51;0.77;;;0.20;;
38972;SDS011;25333;50.762;4.470;2022-10-15T13:28:37;1.42;;;0.22;;
38972;SDS011;25333;50.762;4.470;2022-10-15T13:31:06;0.98;;;0.10;;
38972;SDS011;25333;50.762;4.470;2022-10-15T13:33:44;0.70;;;0.30;;
38972;SDS011;25333;50.762;4.470;2022-10-15T13:36:21;2.35;;;0.25;;
38972;SDS011;25333;50.762;4.470;2022-10-15T13:42:13;3.72;;;0.30;;
38972;SDS011;25333;50.762;4.470;2022-10-15T13:44:37;2.53;;;0.40;;
38972;SDS011;25333;50.762;4.470;2022-10-15T13:56:02;2.42;;;0.30;;
38972;SDS011;25333;50.762;4.470;2022-10-15T13:58:44;3.20;;;0.50;;
38972;SDS011;25333;50.762;4.470;2022-10-15T14:04:51;0.98;;;0.20;;
38972;SDS011;25333;50.762;4.470;2022-10-15T14:07:24;2.70;;;0.20;;
38972;SDS011;25333;50.762;4.470;2022-10-15T14:09:52;1.90;;;0.30;;
38972;SDS011;25333;50.762;4.470;2022-10-15T14:12:18;0.68;;;0.20;;
38972;SDS011;25333;50.762;4.470;2022-10-15T14:14:45;1.23;;;0.28;;
38972;SDS011;25333;50.762;4.470;2022-10-15T14:17:19;1.83;;;0.40;;
38972;SDS011;25333;50.762;4.470;2022-10-15T14:19:48;2.05;;;0.32;;
38972;SDS011;25333;50.762;4.470;2022-10-15T14:22:20;1.98;;;0.35;;
38972;SDS011;25333;50.762;4.470;2022-10-15T14:24:50;1.17;;;0.28;;
38972;SDS011;25333;50.762;4.470;2022-10-15T14:27:29;2.42;;;0.40;;
38972;SDS011;25333;50.762;4.470;2022-10-15T14:30:00;2.60;;;0.40;;
38972;SDS011;25333;50.762;4.470;2022-10-15T14:32:46;1.77;;;0.40;;
38972;SDS011;25333;50.762;4.470;2022-10-15T14:35:31;1.27;;;0.30;;
38972;SDS011;25333;50.762;4.470;2022-10-15T14:38:03;1.35;;;0.45;;
38972;SDS011;25333;50.762;4.470;2022-10-15T14:44:02;3.47;;;0.40;;
38972;SDS011;25333;50.762;4.470;2022-10-15T14:46:46;1.73;;;0.20;;
38972;SDS011;25333;50.762;4.470;2022-10-15T14:49:32;2.33;;;0.40;;
38972;SDS011;25333;50.762;4.470;2022-10-15T14:52:00;1.77;;;0.40;;
38972;SDS011;25333;50.762;4.470;2022-10-15T14:54:38;1.75;;;0.22;;
38972;SDS011;25333;50.762;4.470;2022-10-15T14:57:25;2.42;;;0.63;;
38972;SDS011;25333;50.762;4.470;2022-10-15T14:59:53;3.77;;;0.40;;
38972;SDS011;25333;50.762;4.470;2022-10-15T15:02:21;2.30;;;0.60;;
38972;SDS011;25333;50.762;4.470;2022-10-15T15:07:46;2.22;;;0.38;;
38972;SDS011;25333;50.762;4.470;2022-10-15T15:10:14;2.85;;;0.60;;
38972;SDS011;25333;50.762;4.470;2022-10-15T15:12:45;2.13;;;0.70;;
38972;SDS011;25333;50.762;4.470;2022-10-15T15:15:15;2.07;;;0.40;;
38972;SDS011;25333;50.762;4.470;2022-10-15T15:17:52;4.05;;;0.40;;
38972;SDS011;25333;50.762;4.470;2022-10-15T15:20:18;3.22;;;0.50;;
38972;SDS011;25333;50.762;4.470;2022-10-15T15:22:48;1.10;;;0.40;;
38972;SDS011;25333;50.762;4.470;2022-10-15T15:25:29;2.33;;;0.55;;
38972;SDS011;25333;50.762;4.470;2022-10-15T15:28:04;3.20;;;0.50;;
38972;SDS011;25333;50.762;4.470;2022-10-15T15:30:38;2.30;;;0.40;;
38972;SDS011;25333;50.762;4.470;2022-10-15T15:33:11;3.05;;;0.70;;
38972;SDS011;25333;50.762;4.470;2022-10-15T15:35:43;1.90;;;0.50;;
38972;SDS011;25333;50.762;4.470;2022-10-15T15:38:19;1.52;;;0.47;;
38972;SDS011;25333;50.762;4.470;2022-10-15T15:40:47;1.73;;;0.45;;
38972;SDS011;25333;50.762;4.470;2022-10-15T15:43:13;2.67;;;0.30;;
38972;SDS011;25333;50.762;4.470;2022-10-15T15:45:40;2.03;;;0.45;;
38972;SDS011;25333;50.762;4.470;2022-10-15T15:48:06;2.83;;;0.60;;
38972;SDS011;25333;50.762;4.470;2022-10-15T15:50:32;2.00;;;0.60;;
38972;SDS011;25333;50.762;4.470;2022-10-15T15:52:59;1.60;;;0.65;;
38972;SDS011;25333;50.762;4.470;2022-10-15T15:55:26;3.35;;;0.50;;
38972;SDS011;25333;50.762;4.470;2022-10-15T15:57:51;2.10;;;0.67;;
38972;SDS011;25333;50.762;4.470;2022-10-15T16:00:18;1.33;;;0.30;;
38972;SDS011;25333;50.762;4.470;2022-10-15T16:03:04;1.80;;;0.40;;
38972;SDS011;25333;50.762;4.470;2022-10-15T16:05:36;1.33;;;0.32;;
38972;SDS011;25333;50.762;4.470;2022-10-15T16:08:03;2.85;;;0.45;;
38972;SDS011;25333;50.762;4.470;2022-10-15T16:10:29;1.83;;;0.60;;
38972;SDS011;25333;50.762;4.470;2022-10-15T16:13:02;2.33;;;0.50;;
38972;SDS011;25333;50.762;4.470;2022-10-15T16:15:35;2.28;;;0.50;;
38972;SDS011;25333;50.762;4.470;2022-10-15T16:18:01;3.60;;;0.60;;
38972;SDS011;25333;50.762;4.470;2022-10-15T16:20:27;5.43;;;0.70;;
38972;SDS011;25333;50.762;4.470;2022-10-15T16:22:52;1.27;;;0.47;;
38972;SDS011;25333;50.762;4.470;2022-10-15T16:25:21;2.67;;;0.30;;
38972;SDS011;25333;50.762;4.470;2022-10-15T16:28:07;1.77;;;0.20;;
38972;SDS011;25333;50.762;4.470;2022-10-15T16:30:32;0.93;;;0.30;;
38972;SDS011;25333;50.762;4.470;2022-10-15T16:33:01;1.90;;;0.40;;
38972;SDS011;25333;50.762;4.470;2022-10-15T16:35:27;3.50;;;0.93;;
38972;SDS011;25333;50.762;4.470;2022-10-15T16:37:52;1.40;;;0.50;;
38972;SDS011;25333;50.762;4.470;2022-10-15T16:40:20;2.17;;;0.47;;
38972;SDS011;25333;50.762;4.470;2022-10-15T16:42:46;1.15;;;0.43;;
38972;SDS011;25333;50.762;4.470;2022-10-15T16:45:12;1.63;;;0.47;;
38972;SDS011;25333;50.762;4.470;2022-10-15T16:47:37;2.33;;;0.60;;
38972;SDS011;25333;50.762;4.470;2022-10-15T16:50:03;1.00;;;0.50;;
38972;SDS011;25333;50.762;4.470;2022-10-15T16:52:29;1.50;;;0.38;;
38972;SDS011;25333;50.762;4.470;2022-10-15T16:54:57;6.70;;;0.70;;
38972;SDS011;25333;50.762;4.470;2022-10-15T16:57:22;2.25;;;0.43;;
38972;SDS011;25333;50.762;4.470;2022-10-15T16:59:49;1.88;;;0.30;;
38972;SDS011;25333;50.762;4.470;2022-10-15T17:02:18;0.95;;;0.30;;
38972;SDS011;25333;50.762;4.470;2022-10-15T17:04:44;3.65;;;0.75;;
38972;SDS011;25333;50.762;4.470;2022-10-15T17:07:10;2.90;;;0.50;;
38972;SDS011;25333;50.762;4.470;2022-10-15T17:09:36;1.47;;;0.30;;
38972;SDS011;25333;50.762;4.470;2022-10-15T17:12:02;1.67;;;0.40;;
38972;SDS011;25333;50.762;4.470;2022-10-15T17:14:28;0.57;;;0.20;;
38972;SDS011;25333;50.762;4.470;2022-10-15T17:16:53;2.65;;;0.50;;
38972;SDS011;25333;50.762;4.470;2022-10-15T17:19:20;3.65;;;0.32;;
38972;SDS011;25333;50.762;4.470;2022-10-15T17:21:48;3.08;;;0.38;;
38972;SDS011;25333;50.762;4.470;2022-10-15T17:24:14;1.05;;;0.30;;
38972;SDS011;25333;50.762;4.470;2022-10-15T17:26:42;1.58;;;0.30;;
38972;SDS011;25333;50.762;4.470;2022-10-15T17:29:09;0.98;;;0.30;;
38972;SDS011;25333;50.762;4.470;2022-10-15T17:31:48;5.55;;;0.63;;
38972;SDS011;25333;50.762;4.470;2022-10-15T17:34:14;2.78;;;0.30;;
38972;SDS011;25333;50.762;4.470;2022-10-15T17:36:42;0.47;;;0.10;;
38972;SDS011;25333;50.762;4.470;2022-10-15T17:39:11;2.00;;;0.40;;
38972;SDS011;25333;50.762;4.470;2022-10-15T17:41:39;0.98;;;0.30;;
38972;SDS011;25333;50.762;4.470;2022-10-15T17:44:05;0.93;;;0.30;;
38972;SDS011;25333;50.762;4.470;2022-10-15T17:46:31;2.70;;;0.40;;
38972;SDS011;25333;50.762;4.470;2022-10-15T17:48:57;4.70;;;0.68;;
38972;SDS011;25333;50.762;4.470;2022-10-15T17:51:26;1.30;;;0.40;;
38972;SDS011;25333;50.762;4.470;2022-10-15T17:53:53;2.35;;;0.80;;
38972;SDS011;25333;50.762;4.470;2022-10-15T17:58:46;1.48;;;0.80;;
38972;SDS011;25333;50.762;4.470;2022-10-15T18:01:20;2.38;;;0.90;;
38972;SDS011;25333;50.762;4.470;2022-10-15T18:03:48;2.42;;;0.60;;
38972;SDS011;25333;50.762;4.470;2022-10-15T18:06:16;2.03;;;0.60;;
38972;SDS011;25333;50.762;4.470;2022-10-15T18:08:44;2.97;;;1.00;;
38972;SDS011;25333;50.762;4.470;2022-10-15T18:11:10;2.60;;;0.60;;
38972;SDS011;25333;50.762;4.470;2022-10-15T18:13:41;1.92;;;0.88;;
38972;SDS011;25333;50.762;4.470;2022-10-15T18:16:07;1.80;;;0.80;;